createdAt,value
2022-10-05T00:00:23.736Z,0.55
2022-10-05T00:02:58.562Z,0.45
2022-10-05T00:05:38.114Z,0.63
2022-10-05T00:08:14.763Z,0.40
2022-10-05T00:10:43.904Z,0.25
2022-10-05T00:13:19.126Z,0.50
2022-10-05T00:15:49.893Z,0.47
2022-10-05T00:18:18.911Z,0.40
2022-10-05T00:20:46.872Z,0.25
2022-10-05T00:23:22.034Z,0.30
2022-10-05T00:25:50.178Z,0.20
2022-10-05T00:28:28.504Z,0.30
2022-10-05T00:30:59.289Z,0.35
2022-10-05T00:33:27.494Z,0.60
2022-10-05T00:35:57.773Z,0.55
2022-10-05T00:38:25.354Z,0.25
2022-10-05T00:41:02.180Z,0.55
2022-10-05T00:43:51.100Z,0.50
2022-10-05T00:46:37.592Z,0.13
2022-10-05T00:49:16.367Z,0.55
2022-10-05T00:51:50.786Z,0.45
2022-10-05T00:54:30.492Z,0.73
2022-10-05T00:57:09.891Z,0.43
2022-10-05T00:59:48.158Z,0.50
2022-10-05T01:02:34.420Z,0.70
2022-10-05T01:05:27.232Z,0.38
2022-10-05T01:07:55.728Z,0.30
2022-10-05T01:10:27.572Z,0.20
2022-10-05T01:13:15.364Z,0.60
2022-10-05T01:15:51.358Z,0.30
2022-10-05T01:18:24.578Z,0.38
2022-10-05T01:21:09.926Z,0.43
2022-10-05T01:24:07.367Z,0.60
2022-10-05T01:26:46.337Z,0.30
2022-10-05T01:29:25.386Z,0.40
2022-10-05T01:32:07.129Z,0.40
2022-10-05T01:34:37.346Z,0.50
2022-10-05T01:37:28.491Z,0.47
2022-10-05T01:40:14.482Z,0.38
2022-10-05T01:42:41.888Z,0.40
2022-10-05T01:45:32.483Z,0.43
2022-10-05T01:48:09.816Z,0.82
2022-10-05T01:50:50.433Z,0.30
2022-10-05T01:53:29.153Z,0.68
2022-10-05T01:56:03.290Z,0.57
2022-10-05T01:58:33.802Z,0.70
2022-10-05T02:01:11.238Z,0.57
2022-10-05T02:03:48.197Z,0.85
2022-10-05T02:06:23.912Z,0.50
2022-10-05T02:08:55.403Z,0.60
2022-10-05T02:11:22.858Z,0.35
2022-10-05T02:14:01.212Z,0.30
2022-10-05T02:16:37.181Z,0.43
2022-10-05T02:19:11.033Z,0.57
2022-10-05T02:21:41.368Z,1.38
2022-10-05T02:24:14.736Z,0.60
2022-10-05T02:26:42.530Z,0.50
2022-10-05T02:29:11.610Z,0.30
2022-10-05T02:31:41.846Z,0.30
2022-10-05T02:34:24.596Z,0.55
2022-10-05T02:37:08.624Z,0.80
2022-10-05T02:39:47.501Z,0.15
2022-10-05T02:42:24.428Z,0.50
2022-10-05T02:45:10.124Z,0.50
2022-10-05T02:47:43.224Z,0.50
2022-10-05T02:50:19.369Z,0.20
2022-10-05T02:52:58.398Z,0.30
2022-10-05T02:55:26.011Z,0.57
2022-10-05T02:58:12.333Z,0.30
2022-10-05T03:00:46.573Z,0.50
2022-10-05T03:03:19.612Z,0.32
2022-10-05T03:08:28.601Z,0.60
2022-10-05T03:10:59.092Z,0.10
2022-10-05T03:13:31.833Z,0.38
2022-10-05T03:16:04.999Z,0.40
2022-10-05T03:18:56.538Z,0.30
2022-10-05T03:21:41.320Z,0.20
2022-10-05T03:24:31.850Z,0.30
2022-10-05T03:27:06.276Z,0.40
2022-10-05T03:29:42.182Z,0.30
2022-10-05T03:32:35.381Z,0.65
2022-10-05T03:35:12.703Z,0.38
2022-10-05T03:38:00.421Z,0.55
2022-10-05T03:40:32.831Z,0.43
2022-10-05T03:43:00.296Z,0.17
2022-10-05T03:45:37.584Z,0.65
2022-10-05T03:48:23.320Z,0.60
2022-10-05T03:51:05.494Z,0.45
2022-10-05T03:53:40.587Z,0.43
2022-10-05T03:56:17.602Z,0.50
2022-10-05T03:58:51.142Z,0.80
2022-10-05T04:01:22.253Z,0.52
2022-10-05T04:03:55.817Z,0.20
2022-10-05T04:06:31.656Z,0.20
2022-10-05T04:09:03.991Z,0.50
2022-10-05T04:11:44.608Z,0.20
2022-10-05T04:14:18.619Z,0.57
2022-10-05T04:16:48.467Z,0.50
2022-10-05T04:19:25.530Z,0.35
2022-10-05T04:21:59.846Z,0.35
2022-10-05T04:24:34.467Z,0.50
2022-10-05T04:27:10.519Z,0.43
2022-10-05T04:29:46.214Z,0.35
2022-10-05T04:32:20.502Z,0.40
2022-10-05T04:34:54.082Z,0.52
2022-10-05T04:37:28.192Z,1.40
2022-10-05T04:40:19.568Z,0.50
2022-10-05T04:42:51.040Z,0.52
2022-10-05T04:45:33.371Z,0.57
2022-10-05T04:48:19.507Z,0.37
2022-10-05T04:51:05.367Z,0.75
2022-10-05T04:53:38.762Z,0.70
2022-10-05T04:56:13.687Z,0.38
2022-10-05T04:58:42.532Z,0.50
2022-10-05T05:01:19.362Z,0.80
2022-10-05T05:03:58.129Z,0.73
2022-10-05T05:06:25.717Z,1.25
2022-10-05T05:08:58.635Z,0.73
2022-10-05T05:11:56.220Z,0.40
2022-10-05T05:14:32.755Z,0.82
2022-10-05T05:17:13.463Z,0.57
2022-10-05T05:19:56.093Z,0.75
2022-10-05T05:22:29.608Z,0.32
2022-10-05T05:25:07.328Z,0.40
2022-10-05T05:27:39.505Z,0.43
2022-10-05T05:30:11.054Z,0.50
2022-10-05T05:32:56.767Z,0.60
2022-10-05T05:35:34.205Z,0.70
2022-10-05T05:38:27.435Z,0.70
2022-10-05T05:41:04.666Z,0.63
2022-10-05T05:43:39.371Z,0.43
2022-10-05T05:46:10.087Z,0.28
2022-10-05T05:48:40.375Z,0.60
2022-10-05T05:51:16.640Z,0.43
2022-10-05T05:53:53.763Z,0.25
2022-10-05T05:56:48.909Z,0.45
2022-10-05T05:59:25.151Z,0.77
2022-10-05T06:01:54.868Z,0.45
2022-10-05T06:04:47.261Z,0.30
2022-10-05T06:07:17.451Z,0.55
2022-10-05T06:10:07.913Z,0.95
2022-10-05T06:12:37.890Z,0.57
2022-10-05T06:15:14.350Z,0.40
2022-10-05T06:17:55.485Z,0.50
2022-10-05T06:20:32.030Z,0.50
2022-10-05T06:23:01.457Z,0.50
2022-10-05T06:25:49.979Z,0.50
2022-10-05T06:28:17.519Z,0.43
2022-10-05T06:31:04.368Z,0.30
2022-10-05T06:33:49.603Z,1.75
2022-10-05T06:36:30.238Z,0.70
2022-10-05T06:39:07.452Z,0.60
2022-10-05T06:41:37.831Z,0.55
2022-10-05T06:44:27.059Z,0.60
2022-10-05T06:47:01.645Z,0.30
2022-10-05T06:49:48.946Z,1.75
2022-10-05T06:52:21.956Z,0.70
2022-10-05T06:57:34.242Z,0.68
2022-10-05T07:00:09.245Z,0.40
2022-10-05T07:02:39.777Z,0.95
2022-10-05T07:05:25.365Z,0.40
2022-10-05T07:08:14.489Z,0.70
2022-10-05T07:10:50.390Z,0.32
2022-10-05T07:13:23.550Z,0.88
2022-10-05T07:18:27.455Z,0.95
2022-10-05T07:21:08.042Z,0.80
2022-10-05T07:23:41.712Z,0.50
2022-10-05T07:26:32.920Z,0.93
2022-10-05T07:29:00.276Z,1.15
2022-10-05T07:31:36.594Z,0.52
2022-10-05T07:34:19.907Z,1.05
2022-10-05T07:40:06.552Z,0.60
2022-10-05T07:42:50.716Z,0.70
2022-10-05T07:45:39.565Z,0.70
2022-10-05T07:48:24.901Z,0.77
2022-10-05T07:50:59.675Z,0.93
2022-10-05T07:53:47.272Z,0.65
2022-10-05T07:56:22.376Z,0.65
2022-10-05T07:58:52.603Z,0.50
2022-10-05T08:01:28.510Z,0.75
2022-10-05T08:04:14.555Z,0.70
2022-10-05T08:06:50.945Z,1.13
2022-10-05T08:09:37.120Z,0.90
2022-10-05T08:12:04.474Z,0.85
2022-10-05T08:14:41.091Z,0.75
2022-10-05T08:17:16.169Z,0.55
2022-10-05T08:19:49.327Z,0.90
2022-10-05T08:24:59.729Z,1.15
2022-10-05T08:28:09.113Z,0.90
2022-10-05T08:30:40.764Z,1.02
2022-10-05T08:33:15.137Z,1.40
2022-10-05T08:35:46.990Z,1.25
2022-10-05T08:38:19.184Z,1.02
2022-10-05T08:40:47.677Z,0.87
2022-10-05T08:43:39.683Z,1.45
2022-10-05T08:46:23.420Z,1.15
2022-10-05T08:49:02.686Z,0.80
2022-10-05T08:51:50.395Z,1.08
2022-10-05T08:54:40.730Z,0.80
2022-10-05T08:57:17.394Z,0.98
2022-10-05T08:59:57.239Z,0.60
2022-10-05T09:02:31.910Z,1.48
2022-10-05T09:05:03.240Z,1.08
2022-10-05T09:07:46.020Z,1.25
2022-10-05T09:10:21.727Z,0.68
2022-10-05T09:13:12.286Z,0.85
2022-10-05T09:16:00.546Z,1.15
2022-10-05T09:18:49.160Z,1.02
2022-10-05T09:21:39.181Z,1.27
2022-10-05T09:24:16.891Z,0.80
2022-10-05T09:27:04.648Z,0.65
2022-10-05T09:29:47.496Z,0.85
2022-10-05T09:32:30.956Z,0.75
2022-10-05T09:35:01.288Z,0.90
2022-10-05T09:37:51.521Z,1.25
2022-10-05T09:40:22.101Z,1.20
2022-10-05T09:43:07.846Z,0.82
2022-10-05T09:45:38.961Z,1.30
2022-10-05T09:48:22.729Z,0.88
2022-10-05T09:51:06.080Z,1.48
2022-10-05T09:56:01.879Z,1.27
2022-10-05T09:58:48.633Z,1.42
2022-10-05T10:01:43.265Z,0.63
2022-10-05T10:04:35.176Z,0.65
2022-10-05T10:07:15.985Z,1.02
2022-10-05T10:10:04.875Z,1.50
2022-10-05T10:12:34.331Z,0.75
2022-10-05T10:15:08.006Z,1.35
2022-10-05T10:18:04.773Z,1.30
2022-10-05T10:20:47.300Z,1.65
2022-10-05T10:23:21.715Z,1.27
2022-10-05T10:26:04.430Z,1.17
2022-10-05T10:28:35.770Z,1.98
2022-10-05T10:31:08.013Z,1.48
2022-10-05T10:33:46.909Z,1.00
2022-10-05T10:36:17.654Z,1.30
2022-10-05T10:38:59.436Z,0.88
2022-10-05T10:41:33.761Z,2.05
2022-10-05T10:44:21.844Z,0.80
2022-10-05T10:46:54.415Z,0.90
2022-10-05T10:49:40.453Z,1.27
2022-10-05T10:52:16.754Z,1.20
2022-10-05T10:54:47.735Z,1.30
2022-10-05T10:57:22.450Z,1.40
2022-10-05T11:00:14.651Z,1.17
2022-10-05T11:02:57.505Z,1.05
2022-10-05T11:05:29.424Z,0.85
2022-10-05T11:08:16.966Z,1.80
2022-10-05T11:11:02.936Z,0.95
2022-10-05T11:13:48.894Z,1.00
2022-10-05T11:16:24.501Z,1.15
2022-10-05T11:18:51.886Z,1.05
2022-10-05T11:21:24.119Z,1.35
2022-10-05T11:24:06.854Z,0.77
2022-10-05T11:26:44.105Z,0.73
2022-10-05T11:29:33.410Z,0.95
2022-10-05T11:32:09.681Z,1.23
2022-10-05T11:34:56.474Z,1.05
2022-10-05T11:37:26.315Z,1.20
2022-10-05T11:39:56.879Z,0.88
2022-10-05T11:42:45.920Z,1.13
2022-10-05T11:45:35.121Z,1.10
2022-10-05T11:48:06.696Z,1.45
2022-10-05T11:53:18.910Z,1.95
2022-10-05T12:06:41.765Z,2.17
2022-10-05T12:12:07.548Z,1.05
2022-10-05T12:20:29.818Z,1.00
2022-10-05T12:25:53.554Z,1.02
2022-10-05T12:28:46.295Z,0.73
2022-10-05T12:34:09.042Z,0.73
2022-10-05T12:37:03.573Z,1.92
2022-10-05T12:47:59.604Z,1.63
2022-10-05T12:50:41.805Z,1.37
2022-10-05T12:53:09.369Z,0.90
2022-10-05T13:01:17.320Z,1.07
2022-10-05T13:03:52.459Z,1.40
2022-10-05T13:06:31.754Z,1.40
2022-10-05T13:09:15.414Z,0.80
2022-10-05T13:11:50.998Z,0.65
2022-10-05T13:17:10.250Z,0.82
2022-10-05T13:22:21.459Z,0.80
2022-10-05T13:25:21.620Z,0.95
2022-10-05T13:28:05.131Z,0.55
2022-10-05T13:30:43.821Z,0.38
2022-10-05T13:33:24.610Z,0.93
2022-10-05T13:58:17.249Z,0.30
2022-10-05T14:00:55.025Z,0.40
2022-10-05T14:11:38.466Z,0.20
2022-10-05T14:16:58.256Z,0.40
2022-10-05T14:27:58.976Z,0.60
2022-10-05T14:41:12.243Z,0.53
2022-10-05T14:44:09.101Z,0.30
2022-10-05T14:46:39.550Z,0.52
2022-10-05T14:49:27.332Z,0.30
2022-10-05T15:00:48.785Z,0.38
2022-10-05T15:03:30.435Z,0.20
2022-10-05T15:06:03.352Z,0.10
2022-10-05T15:11:02.492Z,0.70
2022-10-05T15:13:36.044Z,0.50
2022-10-05T15:16:06.772Z,0.40
2022-10-05T15:18:43.028Z,0.50
2022-10-05T15:21:24.533Z,0.35
2022-10-05T15:29:08.957Z,0.43
2022-10-05T15:31:58.272Z,0.30
2022-10-05T15:34:25.851Z,0.38
2022-10-05T15:39:33.517Z,0.60
2022-10-05T15:44:55.067Z,0.40
2022-10-05T15:50:01.945Z,0.40
2022-10-05T15:52:34.043Z,0.70
2022-10-05T15:55:10.991Z,0.40
2022-10-05T15:58:03.163Z,0.70
2022-10-05T16:00:40.491Z,0.52
2022-10-05T16:03:14.654Z,0.40
2022-10-05T16:08:57.217Z,0.35
2022-10-05T16:11:49.468Z,0.70
2022-10-05T16:19:46.210Z,0.30
2022-10-05T16:25:04.371Z,0.57
2022-10-05T16:27:31.897Z,0.55
2022-10-05T16:30:05.745Z,0.40
2022-10-05T16:32:40.253Z,0.45
2022-10-05T16:35:24.559Z,0.68
2022-10-05T16:38:15.864Z,0.68
2022-10-05T16:40:52.873Z,0.43
2022-10-05T16:43:31.262Z,0.40
2022-10-05T16:46:03.590Z,0.40
2022-10-05T16:48:35.192Z,0.68
2022-10-05T16:51:15.876Z,0.50
2022-10-05T16:56:35.064Z,0.20
2022-10-05T16:59:31.624Z,0.55
2022-10-05T17:02:05.333Z,0.28
2022-10-05T17:04:50.555Z,0.25
2022-10-05T17:07:42.749Z,0.30
2022-10-05T17:10:28.845Z,0.43
2022-10-05T17:12:58.965Z,0.60
2022-10-05T17:15:38.996Z,0.85
2022-10-05T17:18:06.472Z,0.38
2022-10-05T17:20:42.684Z,0.63
2022-10-05T17:23:29.888Z,0.50
2022-10-05T17:26:04.404Z,0.30
2022-10-05T17:28:45.427Z,0.30
2022-10-05T17:31:24.985Z,0.38
2022-10-05T17:33:55.819Z,0.55
2022-10-05T17:36:36.855Z,0.55
2022-10-05T17:39:15.603Z,0.32
2022-10-05T17:41:46.388Z,0.63
2022-10-05T17:44:16.899Z,0.60
2022-10-05T17:46:54.402Z,0.40
2022-10-05T17:49:40.572Z,0.50
2022-10-05T17:52:45.541Z,0.28
2022-10-05T17:55:30.632Z,1.15
2022-10-05T17:58:07.394Z,1.25
2022-10-05T18:01:04.898Z,0.40
2022-10-05T18:03:38.103Z,0.50
2022-10-05T18:06:24.967Z,0.20
2022-10-05T18:09:10.786Z,0.43
2022-10-05T18:11:41.043Z,0.73
2022-10-05T18:14:22.914Z,0.90
2022-10-05T18:17:06.542Z,0.47
2022-10-05T18:19:34.277Z,0.30
2022-10-05T18:22:04.858Z,0.60
2022-10-05T18:24:53.742Z,0.40
2022-10-05T18:27:47.518Z,0.30
2022-10-05T18:30:20.837Z,0.32
2022-10-05T18:33:02.919Z,0.65
2022-10-05T18:35:48.762Z,0.90
2022-10-05T18:38:31.562Z,0.43
2022-10-05T18:43:33.648Z,0.30
2022-10-05T18:46:28.068Z,0.47
2022-10-05T18:49:03.058Z,0.40
2022-10-05T18:51:48.420Z,0.30
2022-10-05T18:54:26.788Z,0.70
2022-10-05T18:56:54.211Z,0.50
2022-10-05T18:59:25.681Z,0.30
2022-10-05T19:02:06.290Z,0.82
2022-10-05T19:04:52.122Z,0.50
2022-10-05T19:07:44.417Z,0.52
2022-10-05T19:10:12.418Z,0.30
2022-10-05T19:13:01.458Z,0.43
2022-10-05T19:15:40.919Z,0.52
2022-10-05T19:18:30.654Z,0.40
2022-10-05T19:20:58.057Z,0.55
2022-10-05T19:23:29.304Z,0.30
2022-10-05T19:26:11.957Z,0.50
2022-10-05T19:28:51.434Z,0.43
2022-10-05T19:31:29.901Z,0.35
2022-10-05T19:34:01.262Z,0.40
2022-10-05T19:36:34.731Z,1.00
2022-10-05T19:39:20.656Z,0.98
2022-10-05T19:42:13.589Z,0.50
2022-10-05T19:47:18.623Z,1.45
2022-10-05T19:50:00.897Z,1.67
2022-10-05T19:52:49.784Z,0.50
2022-10-05T19:55:25.517Z,0.50
2022-10-05T19:58:02.001Z,0.80
2022-10-05T20:00:34.781Z,0.68
2022-10-05T20:03:15.061Z,0.50
2022-10-05T20:05:45.997Z,0.50
2022-10-05T20:08:18.308Z,1.10
2022-10-05T20:13:53.632Z,0.50
2022-10-05T20:16:50.205Z,0.77
2022-10-05T20:19:53.952Z,0.60
2022-10-05T20:22:41.442Z,0.60
2022-10-05T20:28:30.379Z,0.95
2022-10-05T20:33:29.791Z,0.70
2022-10-05T20:35:58.427Z,0.40
2022-10-05T20:38:26.187Z,0.70
2022-10-05T20:40:54.370Z,0.35
2022-10-05T20:43:21.840Z,0.35
2022-10-05T20:45:49.271Z,0.50
2022-10-05T20:48:17.210Z,0.93
2022-10-05T20:50:45.053Z,0.85
2022-10-05T20:53:13.852Z,0.60
2022-10-05T20:55:41.378Z,0.47
2022-10-05T20:58:10.680Z,0.57
2022-10-05T21:00:56.790Z,1.40
2022-10-05T21:03:24.376Z,0.28
2022-10-05T21:05:51.831Z,0.50
2022-10-05T21:08:19.513Z,0.60
2022-10-05T21:10:47.297Z,0.30
2022-10-05T21:13:14.732Z,0.40
2022-10-05T21:15:42.277Z,0.73
2022-10-05T21:18:09.757Z,0.73
2022-10-05T21:20:37.148Z,1.15
2022-10-05T21:23:04.572Z,0.75
2022-10-05T21:25:32.120Z,0.63
2022-10-05T21:28:00.351Z,0.35
2022-10-05T21:30:27.951Z,0.55
2022-10-05T21:35:27.736Z,0.95
2022-10-05T21:37:55.137Z,0.50
2022-10-05T21:40:24.582Z,0.55
2022-10-05T21:42:52.014Z,0.50
2022-10-05T21:45:19.533Z,0.65
2022-10-05T21:47:47.015Z,0.77
2022-10-05T21:50:14.507Z,0.68
2022-10-05T21:52:41.982Z,0.60
2022-10-05T21:55:10.582Z,0.82
2022-10-05T21:57:38.701Z,0.82
2022-10-05T22:00:08.564Z,0.90
2022-10-05T22:02:36.122Z,0.90
2022-10-05T22:05:03.848Z,0.50
2022-10-05T22:07:31.364Z,0.70
2022-10-05T22:09:58.818Z,0.77
2022-10-05T22:12:27.033Z,0.75
2022-10-05T22:14:54.641Z,0.98
2022-10-05T22:17:25.458Z,0.77
2022-10-05T22:19:52.896Z,0.70
2022-10-05T22:22:20.389Z,0.80
2022-10-05T22:24:47.894Z,0.77
2022-10-05T22:27:15.757Z,0.55
2022-10-05T22:29:43.313Z,0.47
2022-10-05T22:32:11.391Z,0.63
2022-10-05T22:34:38.866Z,0.95
2022-10-05T22:37:07.003Z,0.93
2022-10-05T22:39:34.441Z,0.77
2022-10-05T22:42:02.225Z,0.50
2022-10-05T22:44:29.709Z,0.98
2022-10-05T22:46:57.472Z,1.13
2022-10-05T22:49:25.092Z,0.63
2022-10-05T22:51:52.740Z,1.27
2022-10-05T22:54:20.186Z,1.15
2022-10-05T22:56:47.696Z,2.28
2022-10-05T22:59:15.913Z,2.65
2022-10-05T23:01:43.491Z,3.38
2022-10-05T23:04:14.656Z,2.75
2022-10-05T23:06:43.341Z,3.10
2022-10-05T23:09:10.852Z,2.70
2022-10-05T23:11:38.437Z,2.42
2022-10-05T23:14:05.902Z,2.33
2022-10-05T23:16:33.406Z,2.55
2022-10-05T23:19:00.888Z,1.80
2022-10-05T23:21:29.974Z,2.50
2022-10-05T23:23:57.490Z,3.53
2022-10-05T23:26:25.504Z,2.72
2022-10-05T23:28:53.407Z,1.50
2022-10-05T23:31:23.071Z,0.77
2022-10-05T23:33:51.017Z,1.75
2022-10-05T23:36:19.628Z,1.77
2022-10-05T23:38:47.491Z,2.30
2022-10-05T23:41:15.010Z,1.20
2022-10-05T23:43:43.911Z,1.77
2022-10-05T23:46:11.795Z,1.30
2022-10-05T23:48:39.512Z,1.48
2022-10-05T23:51:07.755Z,1.05
2022-10-05T23:53:35.964Z,0.90
2022-10-05T23:56:06.647Z,1.02
2022-10-05T23:58:34.375Z,1.13
